sensor_id;sensor_type;location;lat;lon;timestamp;temperature;humidity
34360;DHT22;20624;55.870;26.506;2022-10-19T00:01:19;9.60;99.90
34360;DHT22;20624;55.870;26.506;2022-10-19T00:03:52;9.90;99.90
34360;DHT22;20624;55.870;26.506;2022-10-19T00:06:25;9.50;99.90
34360;DHT22;20624;55.870;26.506;2022-10-19T00:08:58;9.50;99.90
34360;DHT22;20624;55.870;26.506;2022-10-19T00:16:23;9.70;99.90
34360;DHT22;20624;55.870;26.506;2022-10-19T00:21:19;9.50;99.90
34360;DHT22;20624;55.870;26.506;2022-10-19T00:23:46;9.60;99.90
34360;DHT22;20624;55.870;26.506;2022-10-19T00:28:42;9.70;99.90
34360;DHT22;20624;55.870;26.506;2022-10-19T00:31:13;9.60;99.90
34360;DHT22;20624;55.870;26.506;2022-10-19T00:36:28;9.70;99.90
34360;DHT22;20624;55.870;26.506;2022-10-19T00:38:57;9.40;99.90
34360;DHT22;20624;55.870;26.506;2022-10-19T00:41:27;9.70;99.90
34360;DHT22;20624;55.870;26.506;2022-10-19T00:46:44;9.70;99.90
34360;DHT22;20624;55.870;26.506;2022-10-19T00:49:28;9.80;99.90
34360;DHT22;20624;55.870;26.506;2022-10-19T00:52:00;9.70;99.90
34360;DHT22;20624;55.870;26.506;2022-10-19T00:54:30;9.80;99.90
34360;DHT22;20624;55.870;26.506;2022-10-19T00:59:26;9.80;99.90
34360;DHT22;20624;55.870;26.506;2022-10-19T01:01:54;9.60;99.90
34360;DHT22;20624;55.870;26.506;2022-10-19T01:04:23;9.80;99.90
34360;DHT22;20624;55.870;26.506;2022-10-19T01:06:52;9.80;99.90
34360;DHT22;20624;55.870;26.506;2022-10-19T01:12:20;9.70;99.90
34360;DHT22;20624;55.870;26.506;2022-10-19T01:34:27;9.60;99.90
34360;DHT22;20624;55.870;26.506;2022-10-19T01:37:19;9.60;99.90
34360;DHT22;20624;55.870;26.506;2022-10-19T01:42:59;9.70;99.90
34360;DHT22;20624;55.870;26.506;2022-10-19T01:45:48;9.70;99.90
34360;DHT22;20624;55.870;26.506;2022-10-19T01:48:24;9.80;99.90
34360;DHT22;20624;55.870;26.506;2022-10-19T01:51:06;9.70;99.90
34360;DHT22;20624;55.870;26.506;2022-10-19T01:53:41;9.70;99.90
34360;DHT22;20624;55.870;26.506;2022-10-19T01:56:11;9.60;99.90
34360;DHT22;20624;55.870;26.506;2022-10-19T01:58:41;9.50;99.90
34360;DHT22;20624;55.870;26.506;2022-10-19T02:01:13;9.60;99.90
34360;DHT22;20624;55.870;26.506;2022-10-19T02:03:42;9.70;99.90
34360;DHT22;20624;55.870;26.506;2022-10-19T02:06:10;10.00;99.90
34360;DHT22;20624;55.870;26.506;2022-10-19T02:08:51;9.70;99.90
34360;DHT22;20624;55.870;26.506;2022-10-19T02:11:20;9.70;99.90
34360;DHT22;20624;55.870;26.506;2022-10-19T02:13:53;9.70;99.90
34360;DHT22;20624;55.870;26.506;2022-10-19T02:16:46;9.60;99.90
34360;DHT22;20624;55.870;26.506;2022-10-19T02:21:43;9.60;99.90
34360;DHT22;20624;55.870;26.506;2022-10-19T02:24:11;9.60;99.90
34360;DHT22;20624;55.870;26.506;2022-10-19T02:26:39;9.60;99.90
34360;DHT22;20624;55.870;26.506;2022-10-19T02:29:08;9.90;99.90
34360;DHT22;20624;55.870;26.506;2022-10-19T02:34:05;9.60;99.90
34360;DHT22;20624;55.870;26.506;2022-10-19T02:36:33;9.60;99.90
34360;DHT22;20624;55.870;26.506;2022-10-19T02:39:00;9.60;99.90
34360;DHT22;20624;55.870;26.506;2022-10-19T02:46:48;9.50;99.90
34360;DHT22;20624;55.870;26.506;2022-10-19T02:49:17;9.40;99.90
34360;DHT22;20624;55.870;26.506;2022-10-19T02:52:14;9.40;99.90
34360;DHT22;20624;55.870;26.506;2022-10-19T02:54:43;9.30;99.90
34360;DHT22;20624;55.870;26.506;2022-10-19T02:57:22;9.20;99.90
34360;DHT22;20624;55.870;26.506;2022-10-19T02:59:50;9.10;99.90
34360;DHT22;20624;55.870;26.506;2022-10-19T03:02:19;9.10;99.90
34360;DHT22;20624;55.870;26.506;2022-10-19T03:04:47;9.20;99.90
34360;DHT22;20624;55.870;26.506;2022-10-19T03:07:16;9.10;99.90
34360;DHT22;20624;55.870;26.506;2022-10-19T03:17:08;9.10;99.90
34360;DHT22;20624;55.870;26.506;2022-10-19T03:27:00;8.90;99.90
34360;DHT22;20624;55.870;26.506;2022-10-19T03:34:24;8.40;99.90
34360;DHT22;20624;55.870;26.506;2022-10-19T03:36:51;8.60;99.90
34360;DHT22;20624;55.870;26.506;2022-10-19T03:39:19;8.90;99.90
34360;DHT22;20624;55.870;26.506;2022-10-19T03:41:46;8.40;99.90
34360;DHT22;20624;55.870;26.506;2022-10-19T03:44:14;8.40;99.90
34360;DHT22;20624;55.870;26.506;2022-10-19T03:54:07;8.40;99.90
34360;DHT22;20624;55.870;26.506;2022-10-19T03:59:04;8.40;99.90
34360;DHT22;20624;55.870;26.506;2022-10-19T04:01:36;8.40;99.90
34360;DHT22;20624;55.870;26.506;2022-10-19T04:04:08;8.30;99.90
34360;DHT22;20624;55.870;26.506;2022-10-19T04:06:38;8.30;99.90
34360;DHT22;20624;55.870;26.506;2022-10-19T04:09:07;8.20;99.90
34360;DHT22;20624;55.870;26.506;2022-10-19T04:11:36;8.20;99.90
34360;DHT22;20624;55.870;26.506;2022-10-19T04:16:32;8.00;99.90
34360;DHT22;20624;55.870;26.506;2022-10-19T04:19:00;8.00;99.90
34360;DHT22;20624;55.870;26.506;2022-10-19T04:21:30;7.90;99.90
34360;DHT22;20624;55.870;26.506;2022-10-19T04:24:15;7.90;99.90
34360;DHT22;20624;55.870;26.506;2022-10-19T04:29:14;7.90;99.90
34360;DHT22;20624;55.870;26.506;2022-10-19T04:34:11;7.90;99.90
34360;DHT22;20624;55.870;26.506;2022-10-19T04:36:38;7.90;99.90
34360;DHT22;20624;55.870;26.506;2022-10-19T04:44:03;7.50;99.90
34360;DHT22;20624;55.870;26.506;2022-10-19T04:56:27;7.90;99.90
34360;DHT22;20624;55.870;26.506;2022-10-19T04:58:57;7.80;99.90
34360;DHT22;20624;55.870;26.506;2022-10-19T05:01:27;8.10;99.90
34360;DHT22;20624;55.870;26.506;2022-10-19T05:03:59;7.80;99.90
34360;DHT22;20624;55.870;26.506;2022-10-19T05:16:20;7.60;99.90
34360;DHT22;20624;55.870;26.506;2022-10-19T05:18:52;7.60;99.90
34360;DHT22;20624;55.870;26.506;2022-10-19T05:23:51;7.70;99.90
34360;DHT22;20624;55.870;26.506;2022-10-19T05:36:34;7.70;99.90
34360;DHT22;20624;55.870;26.506;2022-10-19T05:39:13;7.70;99.90
34360;DHT22;20624;55.870;26.506;2022-10-19T05:41:45;7.70;99.90
34360;DHT22;20624;55.870;26.506;2022-10-19T05:49:11;7.80;99.90
34360;DHT22;20624;55.870;26.506;2022-10-19T05:59:04;8.00;99.90
34360;DHT22;20624;55.870;26.506;2022-10-19T06:01:33;7.90;99.90
34360;DHT22;20624;55.870;26.506;2022-10-19T06:11:30;8.10;99.90
34360;DHT22;20624;55.870;26.506;2022-10-19T06:21:29;8.30;99.90
34360;DHT22;20624;55.870;26.506;2022-10-19T06:23:59;8.00;99.90
34360;DHT22;20624;55.870;26.506;2022-10-19T06:28:56;8.40;99.90
34360;DHT22;20624;55.870;26.506;2022-10-19T06:49:00;8.30;99.90
34360;DHT22;20624;55.870;26.506;2022-10-19T06:51:31;8.30;99.90
34360;DHT22;20624;55.870;26.506;2022-10-19T06:58:57;8.30;99.90
34360;DHT22;20624;55.870;26.506;2022-10-19T07:11:19;8.10;99.90
34360;DHT22;20624;55.870;26.506;2022-10-19T07:16:16;8.10;99.90
34360;DHT22;20624;55.870;26.506;2022-10-19T07:26:20;8.20;99.90
34360;DHT22;20624;55.870;26.506;2022-10-19T07:33:58;6.10;99.90
34360;DHT22;20624;55.870;26.506;2022-10-19T07:36:28;9.00;99.90
34360;DHT22;20624;55.870;26.506;2022-10-19T07:46:24;8.70;99.90
34360;DHT22;20624;55.870;26.506;2022-10-19T07:51:21;8.60;99.90
34360;DHT22;20624;55.870;26.506;2022-10-19T08:01:18;9.00;99.90
34360;DHT22;20624;55.870;26.506;2022-10-19T08:03:51;9.00;99.90
34360;DHT22;20624;55.870;26.506;2022-10-19T08:19:13;8.80;97.50
34360;DHT22;20624;55.870;26.506;2022-10-19T08:21:45;8.60;99.20
34360;DHT22;20624;55.870;26.506;2022-10-19T08:24:14;8.30;99.10
34360;DHT22;20624;55.870;26.506;2022-10-19T08:39:06;9.20;93.90
34360;DHT22;20624;55.870;26.506;2022-10-19T08:41:42;10.10;82.50
34360;DHT22;20624;55.870;26.506;2022-10-19T08:52:15;11.10;54.80
34360;DHT22;20624;55.870;26.506;2022-10-19T08:54:59;10.50;53.80
34360;DHT22;20624;55.870;26.506;2022-10-19T08:57:41;10.00;57.90
34360;DHT22;20624;55.870;26.506;2022-10-19T09:00:33;10.50;56.30
34360;DHT22;20624;55.870;26.506;2022-10-19T09:11:34;12.80;34.10
34360;DHT22;20624;55.870;26.506;2022-10-19T09:14:27;11.70;34.30
34360;DHT22;20624;55.870;26.506;2022-10-19T09:17:05;10.90;36.30
34360;DHT22;20624;55.870;26.506;2022-10-19T09:25:05;14.80;27.00
34360;DHT22;20624;55.870;26.506;2022-10-19T09:27:40;15.80;21.40
34360;DHT22;20624;55.870;26.506;2022-10-19T09:30:20;15.00;22.00
34360;DHT22;20624;55.870;26.506;2022-10-19T09:32:50;14.90;21.80
34360;DHT22;20624;55.870;26.506;2022-10-19T09:40:29;16.10;20.20
34360;DHT22;20624;55.870;26.506;2022-10-19T09:45:51;13.50;20.90
34360;DHT22;20624;55.870;26.506;2022-10-19T09:50:56;12.70;22.10
34360;DHT22;20624;55.870;26.506;2022-10-19T09:56:05;14.00;21.00
34360;DHT22;20624;55.870;26.506;2022-10-19T10:01:03;13.80;19.50
34360;DHT22;20624;55.870;26.506;2022-10-19T10:03:37;12.50;20.00
34360;DHT22;20624;55.870;26.506;2022-10-19T10:06:13;12.40;22.10
34360;DHT22;20624;55.870;26.506;2022-10-19T10:08:53;12.40;22.60
34360;DHT22;20624;55.870;26.506;2022-10-19T10:11:31;12.60;22.80
34360;DHT22;20624;55.870;26.506;2022-10-19T10:14:15;11.90;26.60
34360;DHT22;20624;55.870;26.506;2022-10-19T10:19:15;13.90;21.60
34360;DHT22;20624;55.870;26.506;2022-10-19T10:21:48;14.10;21.30
34360;DHT22;20624;55.870;26.506;2022-10-19T10:24:23;13.50;20.70
34360;DHT22;20624;55.870;26.506;2022-10-19T10:26:54;14.10;20.70
34360;DHT22;20624;55.870;26.506;2022-10-19T10:39:59;12.60;20.00
34360;DHT22;20624;55.870;26.506;2022-10-19T10:42:51;12.00;21.80
34360;DHT22;20624;55.870;26.506;2022-10-19T10:45:35;11.50;21.80
34360;DHT22;20624;55.870;26.506;2022-10-19T10:58:40;10.20;28.10
34360;DHT22;20624;55.870;26.506;2022-10-19T11:01:18;10.90;24.20
34360;DHT22;20624;55.870;26.506;2022-10-19T11:04:02;12.20;23.10
34360;DHT22;20624;55.870;26.506;2022-10-19T11:11:39;12.40;18.50
34360;DHT22;20624;55.870;26.506;2022-10-19T11:19:36;11.10;23.20
34360;DHT22;20624;55.870;26.506;2022-10-19T11:25:17;10.50;23.10
34360;DHT22;20624;55.870;26.506;2022-10-19T11:30:40;10.20;24.70
34360;DHT22;20624;55.870;26.506;2022-10-19T11:34:00;10.20;26.20
34360;DHT22;20624;55.870;26.506;2022-10-19T11:36:52;9.70;27.20
34360;DHT22;20624;55.870;26.506;2022-10-19T11:39:44;9.40;28.70
34360;DHT22;20624;55.870;26.506;2022-10-19T11:56:09;10.70;23.70
34360;DHT22;20624;55.870;26.506;2022-10-19T12:12:41;9.90;24.40
34360;DHT22;20624;55.870;26.506;2022-10-19T12:17:41;9.00;26.00
34360;DHT22;20624;55.870;26.506;2022-10-19T12:22:49;8.80;27.50
34360;DHT22;20624;55.870;26.506;2022-10-19T12:25:17;9.10;28.00
34360;DHT22;20624;55.870;26.506;2022-10-19T12:27:46;8.80;29.70
34360;DHT22;20624;55.870;26.506;2022-10-19T12:30:22;8.70;29.80
34360;DHT22;20624;55.870;26.506;2022-10-19T12:41:28;8.20;31.20
34360;DHT22;20624;55.870;26.506;2022-10-19T12:46:39;8.10;32.20
34360;DHT22;20624;55.870;26.506;2022-10-19T12:51:56;7.90;32.60
34360;DHT22;20624;55.870;26.506;2022-10-19T12:54:27;8.90;35.00
34360;DHT22;20624;55.870;26.506;2022-10-19T12:56:56;7.70;35.70
34360;DHT22;20624;55.870;26.506;2022-10-19T12:59:35;7.60;36.50
34360;DHT22;20624;55.870;26.506;2022-10-19T13:02:25;7.50;36.30
34360;DHT22;20624;55.870;26.506;2022-10-19T13:07:24;10.00;38.90
34360;DHT22;20624;55.870;26.506;2022-10-19T13:10:00;7.90;35.50
34360;DHT22;20624;55.870;26.506;2022-10-19T13:12:43;8.40;35.20
34360;DHT22;20624;55.870;26.506;2022-10-19T13:18:12;7.60;35.00
34360;DHT22;20624;55.870;26.506;2022-10-19T13:20:52;7.80;36.10
34360;DHT22;20624;55.870;26.506;2022-10-19T13:26:22;7.90;32.80
34360;DHT22;20624;55.870;26.506;2022-10-19T13:28:53;8.20;34.00
34360;DHT22;20624;55.870;26.506;2022-10-19T13:31:27;8.10;33.60
34360;DHT22;20624;55.870;26.506;2022-10-19T13:36:25;7.70;35.50
34360;DHT22;20624;55.870;26.506;2022-10-19T13:39:00;7.10;48.80
34360;DHT22;20624;55.870;26.506;2022-10-19T14:01:04;6.50;48.80
34360;DHT22;20624;55.870;26.506;2022-10-19T14:04:17;7.20;45.20
34360;DHT22;20624;55.870;26.506;2022-10-19T14:06:46;7.70;42.60
34360;DHT22;20624;55.870;26.506;2022-10-19T14:09:27;7.60;43.40
34360;DHT22;20624;55.870;26.506;2022-10-19T14:17:22;9.10;33.20
34360;DHT22;20624;55.870;26.506;2022-10-19T14:20:00;9.20;32.10
34360;DHT22;20624;55.870;26.506;2022-10-19T14:22:30;9.30;31.50
34360;DHT22;20624;55.870;26.506;2022-10-19T14:27:44;9.30;30.00
34360;DHT22;20624;55.870;26.506;2022-10-19T14:30:24;8.80;30.60
34360;DHT22;20624;55.870;26.506;2022-10-19T14:32:53;8.40;33.90
34360;DHT22;20624;55.870;26.506;2022-10-19T14:35:30;8.00;33.90
34360;DHT22;20624;55.870;26.506;2022-10-19T14:37:59;8.50;34.90
34360;DHT22;20624;55.870;26.506;2022-10-19T14:40:33;8.10;34.50
34360;DHT22;20624;55.870;26.506;2022-10-19T14:45:31;7.90;34.90
34360;DHT22;20624;55.870;26.506;2022-10-19T14:48:02;8.10;36.10
34360;DHT22;20624;55.870;26.506;2022-10-19T14:50:49;7.40;37.60
34360;DHT22;20624;55.870;26.506;2022-10-19T14:56:00;6.80;48.10
34360;DHT22;20624;55.870;26.506;2022-10-19T14:58:34;6.70;44.10
34360;DHT22;20624;55.870;26.506;2022-10-19T15:03:33;6.60;44.90
34360;DHT22;20624;55.870;26.506;2022-10-19T15:06:05;6.50;46.40
34360;DHT22;20624;55.870;26.506;2022-10-19T15:08:38;6.90;45.70
34360;DHT22;20624;55.870;26.506;2022-10-19T15:11:27;6.30;44.10
34360;DHT22;20624;55.870;26.506;2022-10-19T15:19:27;6.00;48.00
34360;DHT22;20624;55.870;26.506;2022-10-19T15:27:37;5.60;50.20
34360;DHT22;20624;55.870;26.506;2022-10-19T15:30:27;5.70;52.60
34360;DHT22;20624;55.870;26.506;2022-10-19T15:35:33;5.90;55.50
34360;DHT22;20624;55.870;26.506;2022-10-19T15:38:22;5.50;55.50
34360;DHT22;20624;55.870;26.506;2022-10-19T15:40:59;5.50;58.20
34360;DHT22;20624;55.870;26.506;2022-10-19T15:46:03;5.40;60.60
34360;DHT22;20624;55.870;26.506;2022-10-19T15:51:30;5.80;68.70
34360;DHT22;20624;55.870;26.506;2022-10-19T15:54:00;5.30;62.80
34360;DHT22;20624;55.870;26.506;2022-10-19T15:56:30;5.30;63.60
34360;DHT22;20624;55.870;26.506;2022-10-19T15:58:59;5.30;64.40
34360;DHT22;20624;55.870;26.506;2022-10-19T16:03:56;5.30;64.40
34360;DHT22;20624;55.870;26.506;2022-10-19T16:06:26;5.30;64.80
34360;DHT22;20624;55.870;26.506;2022-10-19T16:08:53;5.20;65.50
34360;DHT22;20624;55.870;26.506;2022-10-19T16:16:29;5.50;68.10
34360;DHT22;20624;55.870;26.506;2022-10-19T16:18:57;5.10;68.80
34360;DHT22;20624;55.870;26.506;2022-10-19T16:21:28;5.10;67.90
34360;DHT22;20624;55.870;26.506;2022-10-19T16:23:56;5.00;69.90
34360;DHT22;20624;55.870;26.506;2022-10-19T16:28:53;4.90;73.30
34360;DHT22;20624;55.870;26.506;2022-10-19T16:31:22;5.00;76.20
34360;DHT22;20624;55.870;26.506;2022-10-19T16:33:51;5.00;76.60
34360;DHT22;20624;55.870;26.506;2022-10-19T16:36:18;4.90;76.70
34360;DHT22;20624;55.870;26.506;2022-10-19T16:38:46;5.00;80.90
34360;DHT22;20624;55.870;26.506;2022-10-19T16:41:14;5.00;80.80
34360;DHT22;20624;55.870;26.506;2022-10-19T16:43:42;5.00;79.60
34360;DHT22;20624;55.870;26.506;2022-10-19T16:46:10;5.00;78.70
34360;DHT22;20624;55.870;26.506;2022-10-19T16:48:37;5.00;79.80
34360;DHT22;20624;55.870;26.506;2022-10-19T16:53:33;5.30;86.50
34360;DHT22;20624;55.870;26.506;2022-10-19T16:56:06;5.00;86.10
34360;DHT22;20624;55.870;26.506;2022-10-19T16:58:34;5.00;81.00
34360;DHT22;20624;55.870;26.506;2022-10-19T17:01:11;4.40;82.40
34360;DHT22;20624;55.870;26.506;2022-10-19T17:03:38;4.90;81.10
34360;DHT22;20624;55.870;26.506;2022-10-19T17:06:07;4.80;87.70
34360;DHT22;20624;55.870;26.506;2022-10-19T17:08:36;4.70;85.80
34360;DHT22;20624;55.870;26.506;2022-10-19T17:13:55;4.70;88.60
34360;DHT22;20624;55.870;26.506;2022-10-19T17:16:24;4.70;87.80
34360;DHT22;20624;55.870;26.506;2022-10-19T17:18:54;4.70;87.50
34360;DHT22;20624;55.870;26.506;2022-10-19T17:21:24;4.60;88.10
34360;DHT22;20624;55.870;26.506;2022-10-19T17:23:53;4.60;88.60
34360;DHT22;20624;55.870;26.506;2022-10-19T17:33:56;4.10;94.10
34360;DHT22;20624;55.870;26.506;2022-10-19T17:41:24;4.00;96.30
34360;DHT22;20624;55.870;26.506;2022-10-19T17:43:53;4.10;94.80
34360;DHT22;20624;55.870;26.506;2022-10-19T17:46:22;3.80;95.70
34360;DHT22;20624;55.870;26.506;2022-10-19T17:48:50;3.80;96.90
34360;DHT22;20624;55.870;26.506;2022-10-19T17:51:23;3.70;99.80
34360;DHT22;20624;55.870;26.506;2022-10-19T17:53:54;3.60;99.90
34360;DHT22;20624;55.870;26.506;2022-10-19T17:56:22;3.60;99.90
34360;DHT22;20624;55.870;26.506;2022-10-19T17:58:50;3.60;99.90
34360;DHT22;20624;55.870;26.506;2022-10-19T18:01:19;3.50;99.90
34360;DHT22;20624;55.870;26.506;2022-10-19T18:03:47;3.50;99.90
34360;DHT22;20624;55.870;26.506;2022-10-19T18:06:17;3.40;99.90
34360;DHT22;20624;55.870;26.506;2022-10-19T18:08:49;3.40;99.90
34360;DHT22;20624;55.870;26.506;2022-10-19T18:11:31;3.30;99.90
34360;DHT22;20624;55.870;26.506;2022-10-19T18:14:02;1.90;99.90
34360;DHT22;20624;55.870;26.506;2022-10-19T18:16:38;3.20;99.90
34360;DHT22;20624;55.870;26.506;2022-10-19T18:19:06;2.70;99.90
34360;DHT22;20624;55.870;26.506;2022-10-19T18:21:38;4.50;99.90
34360;DHT22;20624;55.870;26.506;2022-10-19T18:24:07;3.10;99.90
34360;DHT22;20624;55.870;26.506;2022-10-19T18:26:41;3.10;99.90
34360;DHT22;20624;55.870;26.506;2022-10-19T18:29:30;3.10;99.90
34360;DHT22;20624;55.870;26.506;2022-10-19T18:31:58;3.10;99.90
34360;DHT22;20624;55.870;26.506;2022-10-19T18:34:27;3.10;99.90
34360;DHT22;20624;55.870;26.506;2022-10-19T18:36:55;1.10;99.90
34360;DHT22;20624;55.870;26.506;2022-10-19T18:39:22;3.10;99.90
34360;DHT22;20624;55.870;26.506;2022-10-19T18:41:51;3.10;99.90
34360;DHT22;20624;55.870;26.506;2022-10-19T18:44:21;3.00;99.90
34360;DHT22;20624;55.870;26.506;2022-10-19T18:46:54;3.00;99.90
34360;DHT22;20624;55.870;26.506;2022-10-19T18:49:22;3.00;99.90
34360;DHT22;20624;55.870;26.506;2022-10-19T18:51:50;2.90;99.90
34360;DHT22;20624;55.870;26.506;2022-10-19T18:54:22;2.70;99.90
34360;DHT22;20624;55.870;26.506;2022-10-19T18:56:49;3.70;99.90
34360;DHT22;20624;55.870;26.506;2022-10-19T19:01:45;2.60;99.90
34360;DHT22;20624;55.870;26.506;2022-10-19T19:04:13;2.60;99.90
34360;DHT22;20624;55.870;26.506;2022-10-19T19:06:40;2.70;99.90
34360;DHT22;20624;55.870;26.506;2022-10-19T19:09:09;2.70;99.90
34360;DHT22;20624;55.870;26.506;2022-10-19T19:11:38;2.70;99.90
34360;DHT22;20624;55.870;26.506;2022-10-19T19:14:11;2.70;99.90
34360;DHT22;20624;55.870;26.506;2022-10-19T19:16:40;2.60;99.90
34360;DHT22;20624;55.870;26.506;2022-10-19T19:19:08;2.60;99.90
34360;DHT22;20624;55.870;26.506;2022-10-19T19:24:05;2.40;99.90
34360;DHT22;20624;55.870;26.506;2022-10-19T19:26:38;2.50;99.90
34360;DHT22;20624;55.870;26.506;2022-10-19T19:29:06;2.50;99.90
34360;DHT22;20624;55.870;26.506;2022-10-19T19:31:34;2.50;99.90
34360;DHT22;20624;55.870;26.506;2022-10-19T19:34:01;2.50;99.90
34360;DHT22;20624;55.870;26.506;2022-10-19T19:36:31;2.50;99.90
34360;DHT22;20624;55.870;26.506;2022-10-19T19:38:59;2.50;99.90
34360;DHT22;20624;55.870;26.506;2022-10-19T19:41:28;2.40;99.90
34360;DHT22;20624;55.870;26.506;2022-10-19T19:43:57;2.40;99.90
34360;DHT22;20624;55.870;26.506;2022-10-19T19:46:25;2.40;99.90
34360;DHT22;20624;55.870;26.506;2022-10-19T19:48:58;2.30;99.90
34360;DHT22;20624;55.870;26.506;2022-10-19T19:51:27;2.40;99.90
34360;DHT22;20624;55.870;26.506;2022-10-19T19:53:55;2.30;99.90
34360;DHT22;20624;55.870;26.506;2022-10-19T19:56:22;2.30;99.90
34360;DHT22;20624;55.870;26.506;2022-10-19T19:58:56;2.30;99.90
34360;DHT22;20624;55.870;26.506;2022-10-19T20:01:24;1.80;99.90
34360;DHT22;20624;55.870;26.506;2022-10-19T20:03:52;2.40;99.90
34360;DHT22;20624;55.870;26.506;2022-10-19T20:06:19;2.20;99.90
34360;DHT22;20624;55.870;26.506;2022-10-19T20:08:52;2.20;99.90
34360;DHT22;20624;55.870;26.506;2022-10-19T20:13:48;2.80;99.90
34360;DHT22;20624;55.870;26.506;2022-10-19T20:18:47;1.90;99.90
34360;DHT22;20624;55.870;26.506;2022-10-19T20:31:12;2.00;99.90
34360;DHT22;20624;55.870;26.506;2022-10-19T20:33:41;1.90;99.90
34360;DHT22;20624;55.870;26.506;2022-10-19T20:36:11;1.90;99.90
34360;DHT22;20624;55.870;26.506;2022-10-19T20:38:39;1.80;99.90
34360;DHT22;20624;55.870;26.506;2022-10-19T20:41:11;1.80;99.90
34360;DHT22;20624;55.870;26.506;2022-10-19T20:43:38;1.80;99.90
34360;DHT22;20624;55.870;26.506;2022-10-19T20:48:40;1.80;99.90
34360;DHT22;20624;55.870;26.506;2022-10-19T20:51:22;1.90;99.90
34360;DHT22;20624;55.870;26.506;2022-10-19T20:53:59;1.70;99.90
34360;DHT22;20624;55.870;26.506;2022-10-19T20:56:28;1.70;99.90
34360;DHT22;20624;55.870;26.506;2022-10-19T20:59:08;1.70;99.90
34360;DHT22;20624;55.870;26.506;2022-10-19T21:04:07;1.50;99.90
34360;DHT22;20624;55.870;26.506;2022-10-19T21:06:38;1.60;99.90
34360;DHT22;20624;55.870;26.506;2022-10-19T21:09:07;1.50;99.90
34360;DHT22;20624;55.870;26.506;2022-10-19T21:16:42;1.50;99.90
34360;DHT22;20624;55.870;26.506;2022-10-19T21:26:43;1.40;99.90
34360;DHT22;20624;55.870;26.506;2022-10-19T21:29:11;1.40;99.90
34360;DHT22;20624;55.870;26.506;2022-10-19T21:31:42;1.30;99.90
34360;DHT22;20624;55.870;26.506;2022-10-19T21:39:11;1.30;99.90
34360;DHT22;20624;55.870;26.506;2022-10-19T21:41:39;1.20;99.90
34360;DHT22;20624;55.870;26.506;2022-10-19T21:44:06;1.20;99.90
34360;DHT22;20624;55.870;26.506;2022-10-19T21:46:34;1.10;99.90
34360;DHT22;20624;55.870;26.506;2022-10-19T21:49:03;1.20;99.90
34360;DHT22;20624;55.870;26.506;2022-10-19T21:51:58;1.20;99.90
34360;DHT22;20624;55.870;26.506;2022-10-19T21:54:26;1.20;99.90
34360;DHT22;20624;55.870;26.506;2022-10-19T21:56:55;1.10;99.90
34360;DHT22;20624;55.870;26.506;2022-10-19T21:59:24;1.30;99.90
34360;DHT22;20624;55.870;26.506;2022-10-19T22:01:52;1.30;99.90
34360;DHT22;20624;55.870;26.506;2022-10-19T22:04:21;1.40;99.90
34360;DHT22;20624;55.870;26.506;2022-10-19T22:06:48;1.30;99.90
34360;DHT22;20624;55.870;26.506;2022-10-19T22:09:18;1.30;99.90
34360;DHT22;20624;55.870;26.506;2022-10-19T22:11:46;1.30;99.90
34360;DHT22;20624;55.870;26.506;2022-10-19T22:14:14;1.20;99.90
34360;DHT22;20624;55.870;26.506;2022-10-19T22:16:44;1.20;99.90
34360;DHT22;20624;55.870;26.506;2022-10-19T22:19:11;1.20;99.90
34360;DHT22;20624;55.870;26.506;2022-10-19T22:21:39;-0.40;99.90
34360;DHT22;20624;55.870;26.506;2022-10-19T22:24:11;1.20;99.90
34360;DHT22;20624;55.870;26.506;2022-10-19T22:29:09;0.90;99.90
34360;DHT22;20624;55.870;26.506;2022-10-19T22:31:37;1.00;99.90
34360;DHT22;20624;55.870;26.506;2022-10-19T22:34:08;0.90;99.90
34360;DHT22;20624;55.870;26.506;2022-10-19T22:36:35;0.90;99.90
34360;DHT22;20624;55.870;26.506;2022-10-19T22:39:03;1.40;99.90
34360;DHT22;20624;55.870;26.506;2022-10-19T22:41:31;0.80;99.90
34360;DHT22;20624;55.870;26.506;2022-10-19T22:46:29;0.70;99.90
34360;DHT22;20624;55.870;26.506;2022-10-19T22:48:56;0.70;99.90
34360;DHT22;20624;55.870;26.506;2022-10-19T22:53:51;0.30;99.90
34360;DHT22;20624;55.870;26.506;2022-10-19T22:56:19;0.50;99.90
34360;DHT22;20624;55.870;26.506;2022-10-19T22:58:46;0.50;99.90
34360;DHT22;20624;55.870;26.506;2022-10-19T23:01:14;0.40;99.90
34360;DHT22;20624;55.870;26.506;2022-10-19T23:06:12;0.40;99.90
34360;DHT22;20624;55.870;26.506;2022-10-19T23:08:39;0.40;99.90
34360;DHT22;20624;55.870;26.506;2022-10-19T23:13:35;0.40;99.90
34360;DHT22;20624;55.870;26.506;2022-10-19T23:16:03;0.30;99.90
34360;DHT22;20624;55.870;26.506;2022-10-19T23:18:33;0.30;99.90
34360;DHT22;20624;55.870;26.506;2022-10-19T23:23:31;0.30;99.90
34360;DHT22;20624;55.870;26.506;2022-10-19T23:25:59;0.20;99.90
34360;DHT22;20624;55.870;26.506;2022-10-19T23:28:28;0.20;99.90
34360;DHT22;20624;55.870;26.506;2022-10-19T23:33:25;0.10;99.90
34360;DHT22;20624;55.870;26.506;2022-10-19T23:35:54;0.10;99.90
34360;DHT22;20624;55.870;26.506;2022-10-19T23:38:27;0.00;99.90
34360;DHT22;20624;55.870;26.506;2022-10-19T23:40:54;0.00;99.90
34360;DHT22;20624;55.870;26.506;2022-10-19T23:43:22;0.00;99.90
34360;DHT22;20624;55.870;26.506;2022-10-19T23:45:51;0.00;99.90
34360;DHT22;20624;55.870;26.506;2022-10-19T23:48:19;-0.30;99.90
34360;DHT22;20624;55.870;26.506;2022-10-19T23:50:56;0.00;99.90
34360;DHT22;20624;55.870;26.506;2022-10-19T23:53:23;-0.10;99.90
34360;DHT22;20624;55.870;26.506;2022-10-19T23:55:51;-0.10;99.90
